Blythewood, SC (29016)

7:10 AM EDT on April 19, 2015 (GMT -0400)
Center for Inquiry | | Change Station
CLOSE
Current Station
Personal Weather Station
Location: Columbia, SC
Elevation: 456 ft
Nearby Weather Stations

Elev 456 ft 34.14 °N, 80.88 °W | Updated 33 minutes ago

Overcast
Overcast
66.0 °F
Feels Like 66.0 °F
N
2.9
Wind Variable Wind from North
Gusts 6.7 mph

Today
High -- | Low -- °F
--% Chance of Precip.
Yesterday
High -- | Low -- °F
Precip. -- in
6:48 AM 7:58 PM
New Moon, 1% visible
Pressure 29.94 in
Visibility 0.8 miles
Clouds Overcast 100 ft
Dew Point 66 °F
Humidity 100%
Rainfall -999.00 in
Snow Depth Not available.
UV 0 out of 12
Pollen 8.70 out of 12
Air Quality Not available.
Flu Activity Local Activity
METAR KFDW 191115Z AUTO 12006KT 3/4SM BR OVC001 18/18 A2994 RMK AO1

More Conditions Fewer Conditions

Pressure 29.94 in
Visibility 0.8 miles
Clouds Overcast 100 ft
Dew Point 66 °F
Humidity 100%
Rainfall -999.00 in
Snow Depth Not available.
UV 0 out of 12
Pollen 8.70 out of 12
Air Quality Not available.
Flu Activity Local Activity
METAR KFDW 191115Z AUTO 12006KT 3/4SM BR OVC001 18/18 A2994 RMK AO1

More Conditions Fewer Conditions

10-Day Weather Forecast

Almanac

Astronomy

Apr. 19, 2015 Rise Set
Actual Time
Civil Twilight
Nautical Twilight
Astronomical Twilight
Moon
Length of Visible Light
Length of Day
Tomorrow will be .
, % of the Moon is Illuminated

Today's Extremes

State Highs State Lows

Community

WunderPhotos

Upload Photos

1,814,756 photos uploaded!

WunderBlogs® & News

Nearby

Air Quality

  Air Quality AQ Index Pollutant
Not available.

Snow Depth

Station Depth Elevation

Earthquake Activity

City Distance Mag. Time & Date
Minimum magnitude displayed is 2.5.

Coastal Water Temperatures

Place Temperature

Stations

Nearby Weather Stations

Station Location Temp. Windchill Dew Point Humidity Wind Precip. Elev Updated Type